createdAt,value
2023-04-15T00:00:06.261Z,3.97
2023-04-15T00:02:34.402Z,3.90
2023-04-15T00:05:02.581Z,3.93
2023-04-15T00:07:31.910Z,3.90
2023-04-15T00:10:00.140Z,4.33
2023-04-15T00:12:28.927Z,4.00
2023-04-15T00:14:57.166Z,3.60
2023-04-15T00:17:25.239Z,3.63
2023-04-15T00:19:53.241Z,3.70
2023-04-15T00:22:21.529Z,3.80
2023-04-15T00:24:50.843Z,3.73
2023-04-15T00:27:18.833Z,3.60
2023-04-15T00:29:46.911Z,3.70
2023-04-15T00:32:15.417Z,3.40
2023-04-15T00:34:43.650Z,3.93
2023-04-15T00:37:11.817Z,3.60
2023-04-15T00:39:40.114Z,4.10
2023-04-15T00:42:10.538Z,4.50
2023-04-15T00:44:38.538Z,4.20
2023-04-15T00:47:07.863Z,4.30
2023-04-15T00:49:36.131Z,4.20
2023-04-15T00:52:04.291Z,4.57
2023-04-15T00:54:32.301Z,4.20
2023-04-15T00:57:00.716Z,4.53
2023-04-15T00:59:30.891Z,4.70
2023-04-15T01:01:59.131Z,4.33
2023-04-15T01:04:27.490Z,4.80
2023-04-15T01:06:55.723Z,4.80
2023-04-15T01:09:23.738Z,5.27
2023-04-15T01:11:51.976Z,5.37
2023-04-15T01:14:20.366Z,4.70
2023-04-15T01:16:49.708Z,5.60
2023-04-15T01:19:18.652Z,5.20
2023-04-15T01:21:47.021Z,5.60
2023-04-15T01:24:18.988Z,5.37
2023-04-15T01:26:49.829Z,5.70
2023-04-15T01:29:18.044Z,5.70
2023-04-15T01:31:52.032Z,5.47
2023-04-15T01:34:20.908Z,5.80
2023-04-15T01:36:48.948Z,6.30
2023-04-15T01:39:16.927Z,6.20
2023-04-15T01:41:44.887Z,5.90
2023-04-15T01:44:14.225Z,6.20
2023-04-15T01:46:42.292Z,6.50
2023-04-15T01:49:10.317Z,6.47
2023-04-15T01:51:38.621Z,5.80
2023-04-15T01:54:06.630Z,5.83
2023-04-15T01:56:34.759Z,6.50
2023-04-15T01:59:03.802Z,6.57
2023-04-15T02:01:33.380Z,6.77
2023-04-15T02:04:01.822Z,6.50
2023-04-15T02:06:29.894Z,6.43
2023-04-15T02:08:59.143Z,6.73
2023-04-15T02:11:27.359Z,6.50
2023-04-15T02:13:55.366Z,6.83
2023-04-15T02:16:23.377Z,6.77
2023-04-15T02:18:52.864Z,6.40
2023-04-15T02:21:20.952Z,6.43
2023-04-15T02:23:49.491Z,6.53
2023-04-15T02:26:17.549Z,6.53
2023-04-15T02:28:45.685Z,6.47
2023-04-15T02:31:13.686Z,5.67
2023-04-15T02:33:41.757Z,6.03
2023-04-15T02:36:12.463Z,6.27
2023-04-15T02:38:42.391Z,6.63
2023-04-15T02:41:11.182Z,6.40
2023-04-15T02:43:40.021Z,6.30
2023-04-15T02:46:08.289Z,5.80
2023-04-15T02:48:36.947Z,5.73
2023-04-15T02:51:16.911Z,6.10
2023-04-15T02:53:44.927Z,5.83
2023-04-15T02:56:13.034Z,5.90
2023-04-15T02:58:41.228Z,5.97
2023-04-15T03:01:09.728Z,6.10
2023-04-15T03:03:38.084Z,5.90
2023-04-15T03:06:06.529Z,6.10
2023-04-15T03:08:36.416Z,6.00
2023-04-15T03:11:04.693Z,5.90
2023-04-15T03:13:32.719Z,6.70
2023-04-15T03:16:01.035Z,6.43
2023-04-15T03:18:29.626Z,6.30
2023-04-15T03:20:57.632Z,6.30
2023-04-15T03:23:26.046Z,6.73
2023-04-15T03:25:57.163Z,6.37
2023-04-15T03:28:25.469Z,6.43
2023-04-15T03:30:53.496Z,6.67
2023-04-15T03:33:21.522Z,6.53
2023-04-15T03:35:49.858Z,6.80
2023-04-15T03:38:17.892Z,6.90
2023-04-15T03:40:47.190Z,7.33
2023-04-15T03:43:16.717Z,7.37
2023-04-15T03:45:44.748Z,7.20
2023-04-15T03:48:17.820Z,7.47
2023-04-15T03:50:46.096Z,7.37
2023-04-15T03:53:14.124Z,7.87
2023-04-15T03:55:42.116Z,8.20
2023-04-15T03:58:12.916Z,8.00
2023-04-15T04:00:42.573Z,8.77
2023-04-15T04:03:11.013Z,8.87
2023-04-15T04:05:41.517Z,8.43
2023-04-15T04:08:09.590Z,8.30
2023-04-15T04:10:37.599Z,8.53
2023-04-15T04:13:05.636Z,9.00
2023-04-15T04:15:33.635Z,10.27
2023-04-15T04:18:03.797Z,9.60
2023-04-15T04:20:32.612Z,9.73
2023-04-15T04:23:00.628Z,9.60
2023-04-15T04:25:28.690Z,10.33
2023-04-15T04:27:56.742Z,10.03
2023-04-15T04:30:24.742Z,10.40
2023-04-15T04:32:52.853Z,10.77
2023-04-15T04:35:22.732Z,10.90
2023-04-15T04:37:50.953Z,11.03
2023-04-15T04:40:19.122Z,11.40
2023-04-15T04:42:47.133Z,11.77
2023-04-15T04:45:15.195Z,10.60
2023-04-15T04:47:43.290Z,11.17
2023-04-15T04:50:11.677Z,11.93
2023-04-15T04:52:41.143Z,12.70
2023-04-15T04:55:09.853Z,12.20
2023-04-15T04:57:39.651Z,13.33
2023-04-15T05:00:10.613Z,12.97
2023-04-15T05:02:38.898Z,12.87
2023-04-15T05:05:08.073Z,13.13
2023-04-15T05:07:36.268Z,14.00
2023-04-15T05:10:06.652Z,14.77
2023-04-15T05:12:34.657Z,15.27
2023-04-15T05:15:02.665Z,16.20
2023-04-15T05:17:31.939Z,16.40
2023-04-15T05:20:00.007Z,17.10
2023-04-15T05:22:28.276Z,18.17
2023-04-15T05:24:56.334Z,18.87
2023-04-15T05:27:25.748Z,20.13
2023-04-15T05:29:53.771Z,20.83
2023-04-15T05:32:22.328Z,20.07
2023-04-15T05:34:50.484Z,19.70
2023-04-15T05:37:20.818Z,18.40
2023-04-15T05:39:49.166Z,19.67
2023-04-15T05:42:17.151Z,18.80
2023-04-15T05:44:46.754Z,18.90
2023-04-15T05:47:14.788Z,18.27
2023-04-15T05:49:42.808Z,18.70
2023-04-15T05:52:10.960Z,19.40
2023-04-15T05:54:39.031Z,18.73
2023-04-15T05:57:07.878Z,18.07
2023-04-15T05:59:36.162Z,20.77
2023-04-15T06:02:07.599Z,19.80
2023-04-15T06:04:35.765Z,19.70
2023-04-15T06:07:04.068Z,18.73
2023-04-15T06:09:32.253Z,19.40
2023-04-15T06:12:01.668Z,20.40
2023-04-15T06:14:29.699Z,19.63
2023-04-15T06:16:57.690Z,19.70
2023-04-15T06:19:27.057Z,19.80
2023-04-15T06:21:55.421Z,19.00
2023-04-15T06:24:23.458Z,18.17
2023-04-15T06:26:51.480Z,20.53
2023-04-15T06:29:19.502Z,20.00
2023-04-15T06:31:49.299Z,19.30
2023-04-15T06:34:17.380Z,19.33
2023-04-15T06:36:46.804Z,19.73
2023-04-15T06:39:14.792Z,19.23
2023-04-15T06:41:43.109Z,20.57
2023-04-15T06:44:11.425Z,21.47
2023-04-15T06:46:39.456Z,20.97
2023-04-15T06:49:07.496Z,19.83
2023-04-15T06:51:36.230Z,20.07
2023-04-15T06:54:06.260Z,20.73
2023-04-15T06:56:34.741Z,20.37
2023-04-15T06:59:03.003Z,20.47
2023-04-15T07:01:31.361Z,21.40
2023-04-15T07:03:59.432Z,21.23
2023-04-15T07:06:27.650Z,22.03
2023-04-15T07:08:55.724Z,20.73
2023-04-15T07:11:27.591Z,22.63
2023-04-15T07:13:55.899Z,23.33
2023-04-15T07:16:23.966Z,24.20
2023-04-15T07:18:52.354Z,25.07
2023-04-15T07:21:20.566Z,25.03
2023-04-15T07:23:48.623Z,24.83
2023-04-15T07:26:16.630Z,27.80
2023-04-15T07:28:46.451Z,29.53
2023-04-15T07:31:14.990Z,28.50
2023-04-15T07:33:43.214Z,29.17
2023-04-15T07:36:11.278Z,30.87
2023-04-15T07:38:39.278Z,30.57
2023-04-15T07:41:07.327Z,31.60
2023-04-15T07:43:36.476Z,31.80
2023-04-15T07:46:06.977Z,32.70
2023-04-15T07:48:36.248Z,33.03
2023-04-15T07:51:05.856Z,33.20
2023-04-15T07:53:34.136Z,33.00
2023-04-15T07:56:02.130Z,34.80
2023-04-15T07:58:30.156Z,33.93
2023-04-15T08:00:58.700Z,34.43
2023-04-15T08:03:28.148Z,34.30
2023-04-15T08:05:56.215Z,33.73
2023-04-15T08:08:24.346Z,34.60
2023-04-15T08:10:52.966Z,36.93
2023-04-15T08:13:21.697Z,37.03
2023-04-15T08:16:16.206Z,37.03
2023-04-15T08:18:45.938Z,38.07
2023-04-15T08:21:14.004Z,37.83
2023-04-15T08:23:42.734Z,39.43
2023-04-15T08:26:10.874Z,37.63
2023-04-15T08:28:40.896Z,37.60
2023-04-15T08:31:09.684Z,38.37
2023-04-15T08:33:37.837Z,38.70
2023-04-15T08:36:07.721Z,38.77
2023-04-15T08:38:36.274Z,38.73
2023-04-15T08:41:09.566Z,38.33
2023-04-15T08:43:44.543Z,40.07
2023-04-15T08:46:13.833Z,38.20
2023-04-15T08:48:43.023Z,37.63
2023-04-15T08:51:16.093Z,35.70
2023-04-15T08:53:46.563Z,36.23
2023-04-15T08:56:16.838Z,36.30
2023-04-15T08:58:46.202Z,36.63
2023-04-15T09:01:14.726Z,36.50
2023-04-15T09:03:45.121Z,37.33
2023-04-15T09:06:14.896Z,37.73
2023-04-15T09:08:42.899Z,37.20
2023-04-15T09:11:11.206Z,36.07
2023-04-15T09:13:39.277Z,37.20
2023-04-15T09:16:08.469Z,37.97
2023-04-15T09:18:37.609Z,36.87
2023-04-15T09:21:09.074Z,37.03
2023-04-15T09:23:39.193Z,36.73
2023-04-15T09:26:07.962Z,37.43
2023-04-15T09:28:43.394Z,35.87
2023-04-15T09:31:12.027Z,35.63
2023-04-15T09:33:56.825Z,34.13
2023-04-15T09:36:25.176Z,35.90
2023-04-15T09:38:58.277Z,35.40
2023-04-15T09:41:26.366Z,36.73
2023-04-15T09:43:54.515Z,34.93
2023-04-15T09:46:41.340Z,35.33
2023-04-15T09:49:10.268Z,35.00
2023-04-15T09:51:38.763Z,34.47
2023-04-15T09:54:08.384Z,35.87
2023-04-15T09:56:37.869Z,35.23
2023-04-15T09:59:07.001Z,36.23
2023-04-15T10:01:36.043Z,35.93
2023-04-15T10:04:05.732Z,37.17
2023-04-15T10:06:35.757Z,35.07
2023-04-15T10:09:04.352Z,35.33
2023-04-15T10:11:36.237Z,36.73
2023-04-15T10:14:04.855Z,35.70
2023-04-15T10:16:34.610Z,36.10
2023-04-15T10:19:04.428Z,35.87
2023-04-15T10:21:32.450Z,35.03
2023-04-15T10:24:02.019Z,35.37
2023-04-15T10:26:31.022Z,33.47
2023-04-15T10:29:01.654Z,33.47
2023-04-15T10:31:30.725Z,35.70
2023-04-15T10:33:59.205Z,33.70
2023-04-15T10:36:27.651Z,34.27
2023-04-15T10:38:55.638Z,36.87
2023-04-15T10:41:25.573Z,33.67
2023-04-15T10:43:55.269Z,32.60
2023-04-15T10:46:35.609Z,33.87
2023-04-15T10:49:10.996Z,34.27
2023-04-15T10:51:41.737Z,33.23
2023-04-15T10:54:14.406Z,32.70
2023-04-15T10:56:43.860Z,32.17
2023-04-15T10:59:12.317Z,30.80
2023-04-15T11:01:56.746Z,32.50
2023-04-15T11:04:53.614Z,31.27
2023-04-15T11:07:38.903Z,30.60
2023-04-15T11:10:56.286Z,29.20
2023-04-15T11:13:28.939Z,30.07
2023-04-15T11:15:59.286Z,28.40
2023-04-15T11:18:31.526Z,27.47
2023-04-15T11:21:01.215Z,25.80
2023-04-15T11:23:31.533Z,25.13
2023-04-15T11:26:00.631Z,24.23
2023-04-15T11:28:29.453Z,24.83
2023-04-15T11:30:57.843Z,24.43
2023-04-15T11:33:27.078Z,22.70
2023-04-15T11:35:56.498Z,20.97
2023-04-15T11:38:24.580Z,23.17
2023-04-15T11:40:53.191Z,22.83
2023-04-15T11:43:23.155Z,23.90
2023-04-15T11:45:53.901Z,24.17
2023-04-15T11:48:23.399Z,24.13
2023-04-15T11:50:56.952Z,24.07
2023-04-15T11:53:26.004Z,24.50
2023-04-15T11:55:54.990Z,22.40
2023-04-15T11:58:24.692Z,22.60
2023-04-15T12:00:54.422Z,21.50
2023-04-15T12:03:26.613Z,22.23
2023-04-15T12:06:20.048Z,22.20
2023-04-15T12:09:05.580Z,19.40
2023-04-15T12:11:39.278Z,21.13
2023-04-15T12:14:12.852Z,21.67
2023-04-15T12:16:48.036Z,21.27
2023-04-15T12:19:19.312Z,21.70
2023-04-15T12:21:49.729Z,19.83
2023-04-15T12:24:22.192Z,20.17
2023-04-15T12:26:52.853Z,16.70
2023-04-15T12:29:22.198Z,14.17
2023-04-15T12:31:52.538Z,14.23
2023-04-15T12:34:28.513Z,15.63
2023-04-15T12:36:58.925Z,14.50
2023-04-15T12:39:30.430Z,14.00
2023-04-15T12:41:59.332Z,13.37
2023-04-15T12:44:28.031Z,13.93
2023-04-15T12:46:56.557Z,12.47
2023-04-15T12:49:25.550Z,11.33
2023-04-15T12:51:54.810Z,11.93
2023-04-15T12:54:24.496Z,10.50
2023-04-15T12:56:52.942Z,10.87
2023-04-15T12:59:21.259Z,9.50
2023-04-15T13:01:49.975Z,10.40
2023-04-15T13:04:18.486Z,10.27
2023-04-15T13:06:46.570Z,10.20
2023-04-15T13:09:14.647Z,10.47
2023-04-15T13:11:44.070Z,10.03
2023-04-15T13:14:13.092Z,10.63
2023-04-15T13:16:41.504Z,10.67
2023-04-15T13:19:09.706Z,11.60
2023-04-15T13:21:37.734Z,11.97
2023-04-15T13:24:07.264Z,10.83
2023-04-15T13:26:36.037Z,11.43
2023-04-15T13:29:05.484Z,11.70
2023-04-15T13:31:33.604Z,11.07
2023-04-15T13:34:01.725Z,11.30
2023-04-15T13:36:29.857Z,11.03
2023-04-15T13:38:58.401Z,11.40
2023-04-15T13:41:26.442Z,11.97
2023-04-15T13:43:54.437Z,11.93
2023-04-15T13:46:23.820Z,12.47
2023-04-15T13:48:51.838Z,13.10
2023-04-15T13:51:19.848Z,12.60
2023-04-15T13:53:47.882Z,12.37
2023-04-15T13:56:16.096Z,12.70
2023-04-15T13:58:44.096Z,12.13
2023-04-15T14:01:12.192Z,12.60
2023-04-15T14:03:41.796Z,12.87
2023-04-15T14:06:09.954Z,13.07
2023-04-15T14:08:37.976Z,12.47
2023-04-15T14:11:06.045Z,12.30
2023-04-15T14:13:34.092Z,11.97
2023-04-15T14:16:02.208Z,13.10
2023-04-15T14:18:30.653Z,13.53
2023-04-15T14:21:00.020Z,13.53
2023-04-15T14:23:28.059Z,13.47
2023-04-15T14:25:56.110Z,13.50
2023-04-15T14:28:24.146Z,12.33
2023-04-15T14:30:52.260Z,13.03
2023-04-15T14:33:20.427Z,13.37
2023-04-15T14:35:48.516Z,14.07
2023-04-15T14:38:17.896Z,13.33
2023-04-15T14:40:45.967Z,16.47
2023-04-15T14:43:13.990Z,15.43
2023-04-15T14:45:43.807Z,15.10
2023-04-15T14:48:13.564Z,14.63
2023-04-15T14:50:41.774Z,14.63
2023-04-15T14:53:10.591Z,14.57
2023-04-15T14:55:40.044Z,15.57
2023-04-15T14:58:09.436Z,14.63
2023-04-15T15:00:40.311Z,15.10
2023-04-15T15:03:12.905Z,14.50
2023-04-15T15:05:41.665Z,13.57
2023-04-15T15:08:10.637Z,14.33
2023-04-15T15:10:48.039Z,13.67
2023-04-15T15:13:18.517Z,13.40
2023-04-15T15:15:46.871Z,14.20
2023-04-15T15:18:14.927Z,13.70
2023-04-15T15:20:42.930Z,13.50
2023-04-15T15:23:10.938Z,12.93
2023-04-15T15:25:40.317Z,13.30
2023-04-15T15:28:08.556Z,14.07
2023-04-15T15:30:36.562Z,15.27
2023-04-15T15:33:04.708Z,14.20
2023-04-15T15:35:33.554Z,14.83
2023-04-15T15:38:01.731Z,14.03
2023-04-15T15:40:29.725Z,14.57
2023-04-15T15:42:59.089Z,14.57
2023-04-15T15:45:27.141Z,14.40
2023-04-15T15:47:57.277Z,14.97
2023-04-15T15:50:25.404Z,15.93
2023-04-15T15:52:53.410Z,15.87
2023-04-15T15:55:21.605Z,15.33
2023-04-15T15:57:49.863Z,15.63
2023-04-15T16:00:19.485Z,15.50
2023-04-15T16:05:18.458Z,16.50
2023-04-15T16:07:46.450Z,16.33
2023-04-15T16:10:14.756Z,16.63
2023-04-15T16:12:42.886Z,18.00
2023-04-15T16:15:12.270Z,18.30
2023-04-15T16:17:41.784Z,17.70
2023-04-15T16:20:10.745Z,17.67
2023-04-15T16:22:38.897Z,17.83
2023-04-15T16:25:07.762Z,17.13
2023-04-15T16:27:46.744Z,17.27
2023-04-15T16:30:24.588Z,18.10
2023-04-15T16:32:54.406Z,17.07
2023-04-15T16:35:22.452Z,16.80
2023-04-15T16:37:50.564Z,16.67
2023-04-15T16:40:18.707Z,16.57
2023-04-15T16:42:46.755Z,18.03
2023-04-15T16:45:14.804Z,16.93
2023-04-15T16:47:43.050Z,17.13
2023-04-15T16:50:12.950Z,18.07
2023-04-15T16:52:40.947Z,16.77
2023-04-15T16:55:09.556Z,17.60
2023-04-15T16:57:50.810Z,17.17
2023-04-15T17:00:25.545Z,17.87
2023-04-15T17:02:53.839Z,17.17
2023-04-15T17:05:23.331Z,16.80
2023-04-15T17:07:51.666Z,15.37
2023-04-15T17:10:19.745Z,15.23
2023-04-15T17:12:47.768Z,15.10
2023-04-15T17:15:15.887Z,14.30
2023-04-15T17:17:43.901Z,15.13
2023-04-15T17:20:12.733Z,14.60
2023-04-15T17:22:42.160Z,14.47
2023-04-15T17:25:10.506Z,14.60
2023-04-15T17:27:39.007Z,14.87
2023-04-15T17:30:08.413Z,14.50
2023-04-15T17:32:37.145Z,15.97
2023-04-15T17:35:06.754Z,15.20
2023-04-15T17:37:34.898Z,15.40
2023-04-15T17:40:06.718Z,15.77
2023-04-15T17:42:36.570Z,15.47
2023-04-15T17:45:04.975Z,15.73
2023-04-15T17:47:33.449Z,15.60
2023-04-15T17:50:01.644Z,15.53
2023-04-15T17:52:29.641Z,15.53
2023-04-15T17:54:57.659Z,16.17
2023-04-15T17:57:27.117Z,15.27
2023-04-15T17:59:55.233Z,16.60
2023-04-15T18:02:23.369Z,15.57
2023-04-15T18:04:51.675Z,15.53
2023-04-15T18:07:19.764Z,16.13
2023-04-15T18:09:47.773Z,15.70
2023-04-15T18:12:16.003Z,15.87
2023-04-15T18:14:45.352Z,16.63
2023-04-15T18:17:14.495Z,16.60
2023-04-15T18:19:43.522Z,17.03
2023-04-15T18:22:11.656Z,15.80
2023-04-15T18:24:39.662Z,17.47
2023-04-15T18:27:07.693Z,16.83
2023-04-15T18:29:36.170Z,17.23
2023-04-15T18:32:05.620Z,18.97
2023-04-15T18:34:33.646Z,17.20
2023-04-15T18:37:02.073Z,17.07
2023-04-15T18:39:30.667Z,17.67
2023-04-15T18:41:58.708Z,17.00
2023-04-15T18:44:26.733Z,16.93
2023-04-15T18:46:54.858Z,16.53
2023-04-15T18:49:24.325Z,17.17
2023-04-15T18:51:52.349Z,17.33
2023-04-15T18:54:20.339Z,16.67
2023-04-15T18:56:48.394Z,18.13
2023-04-15T18:59:29.318Z,17.97
2023-04-15T19:01:58.934Z,16.87
2023-04-15T19:04:35.059Z,17.60
2023-04-15T19:07:03.398Z,18.13
2023-04-15T19:09:31.764Z,17.27
2023-04-15T19:11:59.850Z,17.30
2023-04-15T19:14:27.854Z,17.67
2023-04-15T19:16:56.213Z,16.90
2023-04-15T19:19:24.256Z,16.90
2023-04-15T19:21:54.411Z,16.27
2023-04-15T19:24:22.542Z,16.70
2023-04-15T19:26:51.302Z,15.13
2023-04-15T19:29:19.399Z,15.80
2023-04-15T19:31:48.484Z,15.17
2023-04-15T19:34:17.065Z,14.63
2023-04-15T19:36:45.895Z,15.13
2023-04-15T19:39:15.524Z,15.70
2023-04-15T19:41:44.372Z,16.40
2023-04-15T19:44:13.637Z,15.80
2023-04-15T19:46:43.629Z,15.97
2023-04-15T19:49:11.980Z,15.67
2023-04-15T19:51:40.010Z,17.00
2023-04-15T19:54:08.068Z,15.73
2023-04-15T19:56:37.484Z,15.80
2023-04-15T19:59:05.919Z,15.53
2023-04-15T20:01:34.177Z,16.00
2023-04-15T20:04:03.911Z,16.17
2023-04-15T20:06:32.620Z,16.47
2023-04-15T20:09:00.670Z,15.43
2023-04-15T20:12:48.388Z,15.70
2023-04-15T20:14:19.221Z,15.17
2023-04-15T20:16:47.850Z,15.77
2023-04-15T20:19:15.894Z,15.23
2023-04-15T20:21:43.920Z,15.73
2023-04-15T20:24:11.943Z,16.03
2023-04-15T20:26:39.953Z,16.10
2023-04-15T20:29:08.291Z,14.87
2023-04-15T20:31:37.962Z,15.07
2023-04-15T20:34:06.075Z,14.37
2023-04-15T20:36:34.325Z,15.13
2023-04-15T20:39:02.395Z,15.20
2023-04-15T20:41:30.448Z,15.23
2023-04-15T20:43:58.443Z,15.70
2023-04-15T20:46:27.720Z,15.80
2023-04-15T20:48:57.419Z,15.57
2023-04-15T20:51:27.165Z,15.67
2023-04-15T20:53:55.613Z,16.17
2023-04-15T20:56:23.603Z,15.40
2023-04-15T20:58:51.618Z,15.33
2023-04-15T21:01:19.660Z,15.77
2023-04-15T21:03:47.797Z,16.63
2023-04-15T21:06:17.806Z,15.57
2023-04-15T21:08:45.874Z,16.73
2023-04-15T21:11:20.855Z,15.87
2023-04-15T21:13:56.674Z,15.47
2023-04-15T21:16:24.689Z,16.17
2023-04-15T21:18:52.687Z,15.67
2023-04-15T21:21:22.033Z,16.17
2023-04-15T21:23:50.035Z,15.53
2023-04-15T21:26:18.399Z,16.20
2023-04-15T21:28:46.384Z,16.00
2023-04-15T21:31:14.395Z,15.73
2023-04-15T21:33:42.422Z,16.83
2023-04-15T21:36:10.403Z,16.97
2023-04-15T21:38:39.783Z,17.37
2023-04-15T21:41:09.697Z,16.10
2023-04-15T21:43:38.140Z,16.63
2023-04-15T21:46:22.036Z,16.80
2023-04-15T21:48:53.617Z,16.87
2023-04-15T21:51:21.778Z,16.00
2023-04-15T21:53:52.560Z,16.73
2023-04-15T21:56:23.150Z,16.97
2023-04-15T21:58:51.523Z,15.90
2023-04-15T22:01:19.535Z,17.10
2023-04-15T22:03:47.735Z,16.07
2023-04-15T22:06:15.850Z,16.60
2023-04-15T22:08:55.337Z,17.23
2023-04-15T22:11:28.421Z,16.47
2023-04-15T22:13:57.103Z,17.33
2023-04-15T22:16:26.283Z,17.60
2023-04-15T22:18:54.577Z,18.23
2023-04-15T22:21:22.634Z,17.60
2023-04-15T22:23:50.799Z,18.33
2023-04-15T22:26:18.801Z,17.83
2023-04-15T22:28:48.198Z,18.17
2023-04-15T22:31:16.301Z,18.20
2023-04-15T22:33:44.333Z,18.17
2023-04-15T22:36:13.524Z,19.03
2023-04-15T22:38:41.519Z,18.03
2023-04-15T22:41:10.200Z,17.63
2023-04-15T22:43:38.286Z,18.77
2023-04-15T22:46:07.849Z,19.37
2023-04-15T22:48:36.144Z,18.87
2023-04-15T22:51:05.993Z,19.10
2023-04-15T22:53:33.978Z,19.27
2023-04-15T22:56:02.033Z,20.53
2023-04-15T22:58:32.075Z,19.73
2023-04-15T23:01:00.221Z,19.40
2023-04-15T23:03:29.816Z,18.90
2023-04-15T23:05:57.887Z,20.03
2023-04-15T23:08:25.989Z,20.00
2023-04-15T23:10:53.978Z,19.80
2023-04-15T23:13:21.985Z,19.93
2023-04-15T23:15:50.044Z,20.53
2023-04-15T23:18:18.064Z,19.23
2023-04-15T23:20:47.682Z,19.30
2023-04-15T23:23:15.877Z,19.83
2023-04-15T23:25:43.875Z,20.10
2023-04-15T23:28:11.927Z,19.90
2023-04-15T23:30:39.974Z,20.40
2023-04-15T23:33:07.996Z,19.53
2023-04-15T23:35:36.074Z,19.00
2023-04-15T23:38:05.532Z,19.53
2023-04-15T23:40:33.520Z,19.87
2023-04-15T23:43:01.527Z,19.37
2023-04-15T23:45:29.516Z,20.37
2023-04-15T23:47:57.521Z,19.30
2023-04-15T23:50:25.569Z,19.47
2023-04-15T23:52:53.551Z,19.03
2023-04-15T23:55:23.105Z,19.43
2023-04-15T23:57:51.074Z,18.03
